sensor_id;sensor_type;location;lat;lon;timestamp;P1;durP1;ratioP1;P2;durP2;ratioP2
45388;SDS011;31127;52.078;4.370;2022-08-21T00:02:18;8.25;;;3.50;;
45388;SDS011;31127;52.078;4.370;2022-08-21T00:07:20;13.13;;;3.78;;
45388;SDS011;31127;52.078;4.370;2022-08-21T00:12:29;11.32;;;3.88;;
45388;SDS011;31127;52.078;4.370;2022-08-21T00:17:31;15.95;;;4.78;;
45388;SDS011;31127;52.078;4.370;2022-08-21T00:22:33;9.75;;;3.72;;
45388;SDS011;31127;52.078;4.370;2022-08-21T00:27:35;15.55;;;3.65;;
45388;SDS011;31127;52.078;4.370;2022-08-21T00:32:37;14.20;;;3.88;;
45388;SDS011;31127;52.078;4.370;2022-08-21T00:42:42;10.70;;;3.42;;
45388;SDS011;31127;52.078;4.370;2022-08-21T00:47:45;15.20;;;3.28;;
45388;SDS011;31127;52.078;4.370;2022-08-21T00:52:47;11.80;;;3.65;;
45388;SDS011;31127;52.078;4.370;2022-08-21T00:57:50;15.23;;;3.40;;
45388;SDS011;31127;52.078;4.370;2022-08-21T01:02:53;7.93;;;3.15;;
45388;SDS011;31127;52.078;4.370;2022-08-21T01:08:02;12.30;;;3.08;;
45388;SDS011;31127;52.078;4.370;2022-08-21T01:13:06;12.57;;;3.38;;
45388;SDS011;31127;52.078;4.370;2022-08-21T01:18:09;17.13;;;3.50;;
45388;SDS011;31127;52.078;4.370;2022-08-21T01:23:12;14.57;;;3.70;;
45388;SDS011;31127;52.078;4.370;2022-08-21T01:28:14;8.93;;;3.83;;
45388;SDS011;31127;52.078;4.370;2022-08-21T01:33:17;15.18;;;4.25;;
45388;SDS011;31127;52.078;4.370;2022-08-21T01:38:51;18.05;;;4.43;;
45388;SDS011;31127;52.078;4.370;2022-08-21T01:43:53;11.90;;;4.03;;
45388;SDS011;31127;52.078;4.370;2022-08-21T01:48:55;8.57;;;3.92;;
45388;SDS011;31127;52.078;4.370;2022-08-21T01:54:04;12.80;;;3.50;;
45388;SDS011;31127;52.078;4.370;2022-08-21T01:59:06;8.52;;;3.35;;
45388;SDS011;31127;52.078;4.370;2022-08-21T02:04:08;13.13;;;4.00;;
45388;SDS011;31127;52.078;4.370;2022-08-21T02:09:10;14.27;;;3.33;;
45388;SDS011;31127;52.078;4.370;2022-08-21T02:14:13;11.95;;;3.50;;
45388;SDS011;31127;52.078;4.370;2022-08-21T02:19:15;12.10;;;3.33;;
45388;SDS011;31127;52.078;4.370;2022-08-21T02:24:17;10.07;;;3.33;;
45388;SDS011;31127;52.078;4.370;2022-08-21T02:29:19;10.73;;;3.72;;
45388;SDS011;31127;52.078;4.370;2022-08-21T02:34:21;12.98;;;4.05;;
45388;SDS011;31127;52.078;4.370;2022-08-21T02:39:23;13.40;;;4.03;;
45388;SDS011;31127;52.078;4.370;2022-08-21T02:44:25;20.67;;;3.50;;
45388;SDS011;31127;52.078;4.370;2022-08-21T02:49:34;11.40;;;3.40;;
45388;SDS011;31127;52.078;4.370;2022-08-21T02:54:36;11.90;;;3.58;;
45388;SDS011;31127;52.078;4.370;2022-08-21T02:59:45;17.95;;;3.28;;
45388;SDS011;31127;52.078;4.370;2022-08-21T03:04:48;13.82;;;3.70;;
45388;SDS011;31127;52.078;4.370;2022-08-21T03:09:50;16.05;;;3.35;;
45388;SDS011;31127;52.078;4.370;2022-08-21T03:14:52;16.02;;;5.18;;
45388;SDS011;31127;52.078;4.370;2022-08-21T03:19:54;15.50;;;3.75;;
45388;SDS011;31127;52.078;4.370;2022-08-21T03:24:56;11.70;;;3.35;;
45388;SDS011;31127;52.078;4.370;2022-08-21T03:30:06;17.70;;;3.90;;
45388;SDS011;31127;52.078;4.370;2022-08-21T03:35:08;11.27;;;3.53;;
45388;SDS011;31127;52.078;4.370;2022-08-21T03:40:12;13.57;;;3.63;;
45388;SDS011;31127;52.078;4.370;2022-08-21T03:50:16;14.35;;;4.10;;
45388;SDS011;31127;52.078;4.370;2022-08-21T03:55:18;14.23;;;3.47;;
45388;SDS011;31127;52.078;4.370;2022-08-21T04:00:20;11.35;;;3.92;;
45388;SDS011;31127;52.078;4.370;2022-08-21T04:05:22;13.52;;;4.22;;
45388;SDS011;31127;52.078;4.370;2022-08-21T04:10:32;12.82;;;4.00;;
45388;SDS011;31127;52.078;4.370;2022-08-21T04:15:34;13.82;;;4.55;;
45388;SDS011;31127;52.078;4.370;2022-08-21T04:20:35;16.90;;;4.55;;
45388;SDS011;31127;52.078;4.370;2022-08-21T04:25:37;15.38;;;4.93;;
45388;SDS011;31127;52.078;4.370;2022-08-21T04:30:46;12.68;;;4.47;;
45388;SDS011;31127;52.078;4.370;2022-08-21T04:35:48;19.60;;;4.88;;
45388;SDS011;31127;52.078;4.370;2022-08-21T04:40:50;18.73;;;5.50;;
45388;SDS011;31127;52.078;4.370;2022-08-21T04:45:59;20.17;;;5.15;;
45388;SDS011;31127;52.078;4.370;2022-08-21T04:56:33;23.70;;;6.40;;
45388;SDS011;31127;52.078;4.370;2022-08-21T05:01:36;16.95;;;6.13;;
45388;SDS011;31127;52.078;4.370;2022-08-21T05:11:41;23.38;;;7.30;;
45388;SDS011;31127;52.078;4.370;2022-08-21T05:21:46;22.70;;;5.88;;
45388;SDS011;31127;52.078;4.370;2022-08-21T05:26:51;17.85;;;6.43;;
45388;SDS011;31127;52.078;4.370;2022-08-21T05:31:53;21.63;;;6.38;;
45388;SDS011;31127;52.078;4.370;2022-08-21T05:36:55;14.13;;;6.00;;
45388;SDS011;31127;52.078;4.370;2022-08-21T05:42:04;21.52;;;5.70;;
45388;SDS011;31127;52.078;4.370;2022-08-21T05:47:07;17.20;;;5.97;;
45388;SDS011;31127;52.078;4.370;2022-08-21T05:52:09;17.98;;;5.75;;
45388;SDS011;31127;52.078;4.370;2022-08-21T05:57:11;21.38;;;6.70;;
45388;SDS011;31127;52.078;4.370;2022-08-21T06:02:13;22.45;;;6.22;;
45388;SDS011;31127;52.078;4.370;2022-08-21T06:07:15;26.13;;;6.78;;
45388;SDS011;31127;52.078;4.370;2022-08-21T06:12:17;16.80;;;6.97;;
45388;SDS011;31127;52.078;4.370;2022-08-21T06:17:19;20.55;;;6.93;;
45388;SDS011;31127;52.078;4.370;2022-08-21T06:22:22;20.50;;;7.13;;
45388;SDS011;31127;52.078;4.370;2022-08-21T06:27:23;26.85;;;6.75;;
45388;SDS011;31127;52.078;4.370;2022-08-21T06:32:25;18.85;;;6.88;;
45388;SDS011;31127;52.078;4.370;2022-08-21T06:37:27;19.83;;;6.70;;
45388;SDS011;31127;52.078;4.370;2022-08-21T06:42:29;20.70;;;6.57;;
45388;SDS011;31127;52.078;4.370;2022-08-21T06:47:39;15.70;;;6.28;;
45388;SDS011;31127;52.078;4.370;2022-08-21T06:52:40;19.08;;;6.30;;
45388;SDS011;31127;52.078;4.370;2022-08-21T06:57:43;14.27;;;5.68;;
45388;SDS011;31127;52.078;4.370;2022-08-21T07:02:45;17.30;;;6.07;;
45388;SDS011;31127;52.078;4.370;2022-08-21T07:07:47;17.67;;;5.77;;
45388;SDS011;31127;52.078;4.370;2022-08-21T07:12:49;16.55;;;6.05;;
45388;SDS011;31127;52.078;4.370;2022-08-21T07:17:52;12.90;;;5.68;;
45388;SDS011;31127;52.078;4.370;2022-08-21T07:22:54;15.85;;;5.18;;
45388;SDS011;31127;52.078;4.370;2022-08-21T07:27:56;18.33;;;5.13;;
45388;SDS011;31127;52.078;4.370;2022-08-21T07:33:04;16.40;;;5.20;;
45388;SDS011;31127;52.078;4.370;2022-08-21T07:38:07;15.35;;;5.32;;
45388;SDS011;31127;52.078;4.370;2022-08-21T07:43:09;16.83;;;5.73;;
45388;SDS011;31127;52.078;4.370;2022-08-21T07:48:11;16.90;;;4.83;;
45388;SDS011;31127;52.078;4.370;2022-08-21T07:53:13;12.73;;;4.03;;
45388;SDS011;31127;52.078;4.370;2022-08-21T07:58:16;14.05;;;4.38;;
45388;SDS011;31127;52.078;4.370;2022-08-21T08:03:19;17.33;;;4.20;;
45388;SDS011;31127;52.078;4.370;2022-08-21T08:08:21;19.33;;;4.10;;
45388;SDS011;31127;52.078;4.370;2022-08-21T08:13:23;13.23;;;4.07;;
45388;SDS011;31127;52.078;4.370;2022-08-21T08:18:25;17.47;;;4.00;;
45388;SDS011;31127;52.078;4.370;2022-08-21T08:23:27;17.00;;;4.00;;
45388;SDS011;31127;52.078;4.370;2022-08-21T08:28:29;16.27;;;3.77;;
45388;SDS011;31127;52.078;4.370;2022-08-21T08:33:33;15.07;;;3.33;;
45388;SDS011;31127;52.078;4.370;2022-08-21T08:38:35;9.57;;;2.50;;
45388;SDS011;31127;52.078;4.370;2022-08-21T08:43:37;6.70;;;2.27;;
45388;SDS011;31127;52.078;4.370;2022-08-21T08:48:51;7.93;;;2.07;;
45388;SDS011;31127;52.078;4.370;2022-08-21T08:53:55;10.52;;;2.00;;
45388;SDS011;31127;52.078;4.370;2022-08-21T08:59:00;7.43;;;2.13;;
45388;SDS011;31127;52.078;4.370;2022-08-21T09:04:03;7.07;;;2.30;;
45388;SDS011;31127;52.078;4.370;2022-08-21T09:14:24;7.60;;;2.35;;
45388;SDS011;31127;52.078;4.370;2022-08-21T09:24:53;9.35;;;2.13;;
45388;SDS011;31127;52.078;4.370;2022-08-21T09:29:58;9.10;;;2.95;;
45388;SDS011;31127;52.078;4.370;2022-08-21T09:35:03;14.48;;;2.40;;
45388;SDS011;31127;52.078;4.370;2022-08-21T09:40:20;9.90;;;2.77;;
45388;SDS011;31127;52.078;4.370;2022-08-21T09:45:22;7.07;;;2.28;;
45388;SDS011;31127;52.078;4.370;2022-08-21T09:50:25;10.50;;;2.47;;
45388;SDS011;31127;52.078;4.370;2022-08-21T10:00:56;6.20;;;2.00;;
45388;SDS011;31127;52.078;4.370;2022-08-21T10:06:06;14.18;;;2.80;;
45388;SDS011;31127;52.078;4.370;2022-08-21T10:11:13;5.03;;;2.40;;
45388;SDS011;31127;52.078;4.370;2022-08-21T10:21:19;9.95;;;2.40;;
45388;SDS011;31127;52.078;4.370;2022-08-21T10:36:42;7.07;;;2.72;;
45388;SDS011;31127;52.078;4.370;2022-08-21T10:42:05;10.50;;;3.30;;
45388;SDS011;31127;52.078;4.370;2022-08-21T10:47:10;9.88;;;2.67;;
45388;SDS011;31127;52.078;4.370;2022-08-21T10:57:43;11.63;;;2.90;;
45388;SDS011;31127;52.078;4.370;2022-08-21T11:08:15;7.18;;;2.38;;
45388;SDS011;31127;52.078;4.370;2022-08-21T11:13:27;14.23;;;2.50;;
45388;SDS011;31127;52.078;4.370;2022-08-21T11:23:54;6.70;;;2.35;;
45388;SDS011;31127;52.078;4.370;2022-08-21T11:29:02;7.95;;;2.42;;
45388;SDS011;31127;52.078;4.370;2022-08-21T11:34:15;5.57;;;2.28;;
45388;SDS011;31127;52.078;4.370;2022-08-21T11:39:24;6.43;;;2.30;;
45388;SDS011;31127;52.078;4.370;2022-08-21T11:55:04;9.00;;;2.60;;
45388;SDS011;31127;52.078;4.370;2022-08-21T12:00:13;9.48;;;2.63;;
45388;SDS011;31127;52.078;4.370;2022-08-21T12:05:29;7.78;;;2.20;;
45388;SDS011;31127;52.078;4.370;2022-08-21T12:10:33;6.65;;;1.98;;
45388;SDS011;31127;52.078;4.370;2022-08-21T12:15:35;7.57;;;2.40;;
45388;SDS011;31127;52.078;4.370;2022-08-21T12:20:40;7.25;;;2.25;;
45388;SDS011;31127;52.078;4.370;2022-08-21T12:26:03;8.18;;;2.75;;
45388;SDS011;31127;52.078;4.370;2022-08-21T12:31:04;10.23;;;2.22;;
45388;SDS011;31127;52.078;4.370;2022-08-21T12:36:19;7.40;;;2.45;;
45388;SDS011;31127;52.078;4.370;2022-08-21T12:41:33;8.63;;;2.55;;
45388;SDS011;31127;52.078;4.370;2022-08-21T12:46:51;5.47;;;1.90;;
45388;SDS011;31127;52.078;4.370;2022-08-21T12:56:59;9.43;;;2.38;;
45388;SDS011;31127;52.078;4.370;2022-08-21T13:02:01;8.50;;;2.80;;
45388;SDS011;31127;52.078;4.370;2022-08-21T13:07:09;7.68;;;2.38;;
45388;SDS011;31127;52.078;4.370;2022-08-21T13:12:14;7.65;;;2.28;;
45388;SDS011;31127;52.078;4.370;2022-08-21T13:17:31;4.90;;;2.50;;
45388;SDS011;31127;52.078;4.370;2022-08-21T13:22:39;6.95;;;2.70;;
45388;SDS011;31127;52.078;4.370;2022-08-21T13:27:42;5.13;;;2.50;;
45388;SDS011;31127;52.078;4.370;2022-08-21T13:32:45;9.40;;;2.80;;
45388;SDS011;31127;52.078;4.370;2022-08-21T13:37:49;10.32;;;2.88;;
45388;SDS011;31127;52.078;4.370;2022-08-21T13:42:53;9.60;;;2.55;;
45388;SDS011;31127;52.078;4.370;2022-08-21T13:47:54;7.57;;;2.70;;
45388;SDS011;31127;52.078;4.370;2022-08-21T13:53:00;7.88;;;2.17;;
45388;SDS011;31127;52.078;4.370;2022-08-21T13:58:03;9.63;;;2.25;;
45388;SDS011;31127;52.078;4.370;2022-08-21T14:03:09;7.57;;;2.40;;
45388;SDS011;31127;52.078;4.370;2022-08-21T14:08:14;8.13;;;2.58;;
45388;SDS011;31127;52.078;4.370;2022-08-21T14:13:24;8.23;;;2.58;;
45388;SDS011;31127;52.078;4.370;2022-08-21T14:18:29;7.55;;;2.42;;
45388;SDS011;31127;52.078;4.370;2022-08-21T14:23:38;9.20;;;2.83;;
45388;SDS011;31127;52.078;4.370;2022-08-21T14:28:40;9.68;;;2.40;;
45388;SDS011;31127;52.078;4.370;2022-08-21T14:33:43;8.45;;;2.50;;
45388;SDS011;31127;52.078;4.370;2022-08-21T14:38:45;8.82;;;2.75;;
45388;SDS011;31127;52.078;4.370;2022-08-21T14:43:54;8.38;;;2.40;;
45388;SDS011;31127;52.078;4.370;2022-08-21T14:48:57;9.35;;;2.90;;
45388;SDS011;31127;52.078;4.370;2022-08-21T14:53:59;13.85;;;3.03;;
45388;SDS011;31127;52.078;4.370;2022-08-21T14:59:02;11.50;;;2.45;;
45388;SDS011;31127;52.078;4.370;2022-08-21T15:04:05;10.23;;;2.83;;
45388;SDS011;31127;52.078;4.370;2022-08-21T15:09:21;9.10;;;2.83;;
45388;SDS011;31127;52.078;4.370;2022-08-21T15:14:24;9.77;;;3.10;;
45388;SDS011;31127;52.078;4.370;2022-08-21T15:19:26;11.82;;;3.28;;
45388;SDS011;31127;52.078;4.370;2022-08-21T15:24:29;11.05;;;3.85;;
45388;SDS011;31127;52.078;4.370;2022-08-21T15:34:33;9.32;;;2.83;;
45388;SDS011;31127;52.078;4.370;2022-08-21T15:39:42;11.75;;;3.53;;
45388;SDS011;31127;52.078;4.370;2022-08-21T15:44:44;11.80;;;3.20;;
45388;SDS011;31127;52.078;4.370;2022-08-21T15:49:54;6.88;;;2.95;;
45388;SDS011;31127;52.078;4.370;2022-08-21T15:54:56;7.47;;;2.45;;
45388;SDS011;31127;52.078;4.370;2022-08-21T15:59:59;8.57;;;2.70;;
45388;SDS011;31127;52.078;4.370;2022-08-21T16:05:08;7.85;;;2.83;;
45388;SDS011;31127;52.078;4.370;2022-08-21T16:10:13;8.63;;;3.05;;
45388;SDS011;31127;52.078;4.370;2022-08-21T16:15:22;8.88;;;2.50;;
45388;SDS011;31127;52.078;4.370;2022-08-21T16:20:25;7.57;;;2.50;;
45388;SDS011;31127;52.078;4.370;2022-08-21T16:25:28;10.57;;;3.03;;
45388;SDS011;31127;52.078;4.370;2022-08-21T16:30:30;9.27;;;3.47;;
45388;SDS011;31127;52.078;4.370;2022-08-21T16:35:32;8.57;;;3.17;;
45388;SDS011;31127;52.078;4.370;2022-08-21T16:45:36;8.60;;;3.28;;
45388;SDS011;31127;52.078;4.370;2022-08-21T16:55:40;8.40;;;2.50;;
45388;SDS011;31127;52.078;4.370;2022-08-21T17:00:42;8.00;;;2.20;;
45388;SDS011;31127;52.078;4.370;2022-08-21T17:05:44;8.73;;;2.90;;
45388;SDS011;31127;52.078;4.370;2022-08-21T17:10:53;9.00;;;3.15;;
45388;SDS011;31127;52.078;4.370;2022-08-21T17:15:55;8.23;;;2.70;;
45388;SDS011;31127;52.078;4.370;2022-08-21T17:20:57;8.77;;;2.65;;
45388;SDS011;31127;52.078;4.370;2022-08-21T17:25:59;7.15;;;2.85;;
45388;SDS011;31127;52.078;4.370;2022-08-21T17:31:01;9.40;;;2.63;;
45388;SDS011;31127;52.078;4.370;2022-08-21T17:36:05;9.85;;;2.92;;
45388;SDS011;31127;52.078;4.370;2022-08-21T17:41:07;11.35;;;2.92;;
45388;SDS011;31127;52.078;4.370;2022-08-21T17:46:11;9.38;;;2.63;;
45388;SDS011;31127;52.078;4.370;2022-08-21T17:51:21;9.20;;;3.00;;
45388;SDS011;31127;52.078;4.370;2022-08-21T17:56:25;7.38;;;2.60;;
45388;SDS011;31127;52.078;4.370;2022-08-21T18:01:29;9.48;;;2.70;;
45388;SDS011;31127;52.078;4.370;2022-08-21T18:06:31;8.25;;;2.72;;
45388;SDS011;31127;52.078;4.370;2022-08-21T18:11:34;13.88;;;3.20;;
45388;SDS011;31127;52.078;4.370;2022-08-21T18:16:36;10.20;;;2.70;;
45388;SDS011;31127;52.078;4.370;2022-08-21T18:21:38;10.83;;;4.40;;
45388;SDS011;31127;52.078;4.370;2022-08-21T18:26:41;11.07;;;2.97;;
45388;SDS011;31127;52.078;4.370;2022-08-21T18:31:44;10.23;;;2.70;;
45388;SDS011;31127;52.078;4.370;2022-08-21T18:36:47;9.43;;;3.03;;
45388;SDS011;31127;52.078;4.370;2022-08-21T18:41:50;7.53;;;2.40;;
45388;SDS011;31127;52.078;4.370;2022-08-21T18:47:00;6.70;;;2.20;;
45388;SDS011;31127;52.078;4.370;2022-08-21T18:52:03;11.57;;;3.10;;
45388;SDS011;31127;52.078;4.370;2022-08-21T18:57:06;7.55;;;2.60;;
45388;SDS011;31127;52.078;4.370;2022-08-21T19:02:08;8.37;;;2.73;;
45388;SDS011;31127;52.078;4.370;2022-08-21T19:07:23;10.30;;;3.05;;
45388;SDS011;31127;52.078;4.370;2022-08-21T19:12:26;7.68;;;2.45;;
45388;SDS011;31127;52.078;4.370;2022-08-21T19:17:27;9.40;;;2.67;;
45388;SDS011;31127;52.078;4.370;2022-08-21T19:22:29;12.13;;;3.33;;
45388;SDS011;31127;52.078;4.370;2022-08-21T19:27:32;12.33;;;2.80;;
45388;SDS011;31127;52.078;4.370;2022-08-21T19:32:35;10.00;;;2.63;;
45388;SDS011;31127;52.078;4.370;2022-08-21T19:37:40;8.82;;;3.28;;
45388;SDS011;31127;52.078;4.370;2022-08-21T19:42:50;8.30;;;2.50;;
45388;SDS011;31127;52.078;4.370;2022-08-21T19:47:52;13.87;;;5.27;;
45388;SDS011;31127;52.078;4.370;2022-08-21T19:52:53;8.53;;;2.67;;
45388;SDS011;31127;52.078;4.370;2022-08-21T19:57:56;9.32;;;3.13;;
45388;SDS011;31127;52.078;4.370;2022-08-21T20:02:57;10.48;;;2.95;;
45388;SDS011;31127;52.078;4.370;2022-08-21T20:08:06;7.30;;;2.83;;
45388;SDS011;31127;52.078;4.370;2022-08-21T20:13:08;9.13;;;3.08;;
45388;SDS011;31127;52.078;4.370;2022-08-21T20:18:11;15.63;;;3.40;;
45388;SDS011;31127;52.078;4.370;2022-08-21T20:23:13;7.18;;;2.90;;
45388;SDS011;31127;52.078;4.370;2022-08-21T20:28:22;12.82;;;3.30;;
45388;SDS011;31127;52.078;4.370;2022-08-21T20:33:24;10.03;;;2.90;;
45388;SDS011;31127;52.078;4.370;2022-08-21T20:38:26;8.83;;;2.87;;
45388;SDS011;31127;52.078;4.370;2022-08-21T20:43:28;11.93;;;3.57;;
45388;SDS011;31127;52.078;4.370;2022-08-21T20:48:59;11.02;;;3.88;;
45388;SDS011;31127;52.078;4.370;2022-08-21T20:54:03;11.60;;;3.10;;
45388;SDS011;31127;52.078;4.370;2022-08-21T21:04:39;9.35;;;3.47;;
45388;SDS011;31127;52.078;4.370;2022-08-21T21:09:43;9.88;;;3.03;;
45388;SDS011;31127;52.078;4.370;2022-08-21T21:14:51;10.85;;;3.67;;
45388;SDS011;31127;52.078;4.370;2022-08-21T21:20:33;9.23;;;4.43;;
45388;SDS011;31127;52.078;4.370;2022-08-21T21:25:38;7.57;;;3.70;;
45388;SDS011;31127;52.078;4.370;2022-08-21T21:36:15;7.57;;;2.80;;
45388;SDS011;31127;52.078;4.370;2022-08-21T21:46:55;8.18;;;2.97;;
45388;SDS011;31127;52.078;4.370;2022-08-21T22:07:32;10.93;;;3.58;;
45388;SDS011;31127;52.078;4.370;2022-08-21T22:12:49;9.98;;;3.05;;
45388;SDS011;31127;52.078;4.370;2022-08-21T22:18:04;9.68;;;2.83;;
45388;SDS011;31127;52.078;4.370;2022-08-21T22:23:13;12.25;;;3.60;;
45388;SDS011;31127;52.078;4.370;2022-08-21T22:28:31;12.43;;;3.92;;
45388;SDS011;31127;52.078;4.370;2022-08-21T22:33:33;11.63;;;3.92;;
45388;SDS011;31127;52.078;4.370;2022-08-21T22:38:36;5.70;;;3.07;;
45388;SDS011;31127;52.078;4.370;2022-08-21T22:43:50;10.05;;;3.35;;
45388;SDS011;31127;52.078;4.370;2022-08-21T22:48:53;9.85;;;3.72;;
45388;SDS011;31127;52.078;4.370;2022-08-21T22:54:04;8.30;;;2.80;;
45388;SDS011;31127;52.078;4.370;2022-08-21T23:04:27;9.80;;;2.95;;
45388;SDS011;31127;52.078;4.370;2022-08-21T23:09:35;5.83;;;3.03;;
45388;SDS011;31127;52.078;4.370;2022-08-21T23:14:37;12.32;;;3.30;;
45388;SDS011;31127;52.078;4.370;2022-08-21T23:19:56;10.45;;;3.95;;
45388;SDS011;31127;52.078;4.370;2022-08-21T23:30:21;10.52;;;3.28;;
45388;SDS011;31127;52.078;4.370;2022-08-21T23:40:51;7.85;;;2.92;;
45388;SDS011;31127;52.078;4.370;2022-08-21T23:51:10;12.75;;;3.15;;
